Time;durP1;ratioP1;P1;durP2;ratioP2;P2;SDS_P1;SDS_P2;PMS_P1;PMS_P2;Temp;Humidity;BMP_temperature;BMP_pressure;BME280_temperature;BME280_humidity;BME280_pressure;Samples;Min_cycle;Max_cycle;Signal;HPM_P1;HPM_P2
2021/06/20 00:00:17;;;;;;;6.40;5.63;;;21.00;99.90;;;;;;5016477;28;20082;-73
2021/06/20 00:02:43;;;;;;;6.93;6.10;;;20.90;99.90;;;;;;5013866;28;20517;-73
2021/06/20 00:05:12;;;;;;;6.20;5.70;;;20.90;99.90;;;;;;5011948;28;20102;-73
2021/06/20 00:07:42;;;;;;;6.90;5.47;;;20.90;99.90;;;;;;5009471;28;20193;-73
2021/06/20 00:10:08;;;;;;;7.07;6.40;;;20.90;99.90;;;;;;5008607;28;20185;-73
2021/06/20 00:12:39;;;;;;;6.88;5.80;;;20.80;99.90;;;;;;5008944;28;20075;-73
2021/06/20 00:15:07;;;;;;;10.45;6.90;;;20.80;99.90;;;;;;5019405;28;20097;-73
2021/06/20 00:17:33;;;;;;;6.55;5.97;;;20.80;99.90;;;;;;5009263;28;20085;-73
2021/06/20 00:19:59;;;;;;;6.70;5.65;;;20.80;99.90;;;;;;5009081;28;20159;-73
2021/06/20 00:22:25;;;;;;;5.70;5.20;;;20.90;99.90;;;;;;5009479;28;20169;-72
2021/06/20 00:24:51;;;;;;;8.07;5.70;;;20.90;99.90;;;;;;5014613;28;20117;-73
2021/06/20 00:27:16;;;;;;;6.55;5.82;;;20.80;99.90;;;;;;5007813;28;20097;-72
2021/06/20 00:29:42;;;;;;;7.70;5.82;;;20.70;99.90;;;;;;5007460;28;20209;-72
2021/06/20 00:32:08;;;;;;;6.82;6.22;;;20.70;99.90;;;;;;5018850;28;20074;-73
2021/06/20 00:34:33;;;;;;;6.65;6.05;;;20.80;99.90;;;;;;5017137;28;20090;-73
2021/06/20 00:36:59;;;;;;;7.25;6.63;;;20.70;99.90;;;;;;5018213;28;20189;-72
2021/06/20 00:39:24;;;;;;;9.25;5.97;;;20.70;99.90;;;;;;5008841;28;20086;-72
2021/06/20 00:41:50;;;;;;;6.50;6.00;;;20.80;99.90;;;;;;5008918;28;20108;-72
2021/06/20 00:44:16;;;;;;;7.15;5.90;;;20.70;99.90;;;;;;4990711;28;20156;-72
2021/06/20 00:46:41;;;;;;;6.90;6.18;;;20.70;99.90;;;;;;5010453;28;20629;-72
2021/06/20 00:49:07;;;;;;;6.18;5.63;;;20.70;99.90;;;;;;5008906;28;20117;-73
2021/06/20 00:51:33;;;;;;;8.15;6.55;;;20.60;99.90;;;;;;5009177;28;20145;-72
2021/06/20 00:53:58;;;;;;;7.32;6.57;;;20.60;99.90;;;;;;5009768;28;20157;-73
2021/06/20 00:56:24;;;;;;;6.75;6.15;;;20.50;99.90;;;;;;5014748;28;20160;-73
2021/06/20 00:59:01;;;;;;;7.05;5.72;;;20.60;99.90;;;;;;5008891;28;20095;-73
2021/06/20 01:01:31;;;;;;;7.15;6.45;;;20.50;99.90;;;;;;5006481;28;20082;-73
2021/06/20 01:03:57;;;;;;;6.60;5.95;;;20.50;99.90;;;;;;5007471;28;20082;-73
2021/06/20 01:06:24;;;;;;;7.43;5.97;;;20.60;99.90;;;;;;5005361;28;20189;-73
2021/06/20 01:08:49;;;;;;;6.97;6.18;;;20.70;99.90;;;;;;4989947;28;20102;-73
2021/06/20 01:11:15;;;;;;;7.93;7.07;;;20.70;99.90;;;;;;5016797;28;20086;-73
2021/06/20 01:13:43;;;;;;;6.82;6.13;;;20.80;99.90;;;;;;5009936;28;20527;-73
2021/06/20 01:16:09;;;;;;;7.38;6.68;;;20.80;99.90;;;;;;5012809;28;20145;-73
2021/06/20 01:18:35;;;;;;;6.65;6.05;;;20.70;99.90;;;;;;5012284;28;20098;-73
2021/06/20 01:21:00;;;;;;;8.45;6.25;;;20.80;99.90;;;;;;4993612;28;20154;-73
2021/06/20 01:23:26;;;;;;;6.32;5.72;;;20.50;99.90;;;;;;5012136;28;20157;-73
2021/06/20 01:25:54;;;;;;;7.00;6.40;;;20.50;99.90;;;;;;5038227;28;20135;-73
2021/06/20 01:28:26;;;;;;;9.20;6.18;;;20.50;99.90;;;;;;5022759;28;20157;-73
2021/06/20 01:30:59;;;;;;;6.82;6.25;;;20.50;99.90;;;;;;5020144;28;20078;-73
2021/06/20 01:33:26;;;;;;;6.82;6.13;;;20.50;99.90;;;;;;5021635;28;20141;-73
2021/06/20 01:35:52;;;;;;;6.80;6.20;;;20.60;99.90;;;;;;5011597;28;20114;-73
2021/06/20 01:38:18;;;;;;;7.35;6.72;;;20.60;99.90;;;;;;5014095;28;20454;-73
2021/06/20 01:40:44;;;;;;;6.72;6.13;;;20.70;99.90;;;;;;5012278;28;20089;-73
2021/06/20 01:43:10;;;;;;;7.55;6.85;;;20.50;99.90;;;;;;5015734;28;20489;-73
2021/06/20 01:45:39;;;;;;;6.28;5.78;;;20.40;99.90;;;;;;5013677;28;20152;-73
2021/06/20 01:48:06;;;;;;;6.82;6.22;;;20.40;99.90;;;;;;5011985;28;20066;-73
2021/06/20 01:50:33;;;;;;;6.95;6.22;;;20.50;99.90;;;;;;5013346;28;20492;-73
2021/06/20 01:53:00;;;;;;;6.72;6.10;;;20.50;99.90;;;;;;5012042;28;20102;-73
2021/06/20 01:55:26;;;;;;;6.32;5.72;;;20.50;99.90;;;;;;5015835;28;20098;-73
2021/06/20 01:57:51;;;;;;;7.28;6.57;;;20.50;99.90;;;;;;5011230;28;20071;-73
2021/06/20 02:00:17;;;;;;;7.32;6.72;;;20.50;99.90;;;;;;5011660;28;20474;-73
2021/06/20 02:02:44;;;;;;;7.45;6.68;;;20.40;99.90;;;;;;5012729;28;20109;-73
2021/06/20 02:05:11;;;;;;;7.45;6.60;;;20.40;99.90;;;;;;5013384;28;20117;-73
2021/06/20 02:07:37;;;;;;;7.75;7.05;;;20.30;99.90;;;;;;5011185;28;20082;-73
2021/06/20 02:10:06;;;;;;;8.23;6.95;;;20.40;99.90;;;;;;5021094;28;20101;-73
2021/06/20 02:12:31;;;;;;;8.15;7.10;;;20.40;99.90;;;;;;5010750;28;20067;-73
2021/06/20 02:14:57;;;;;;;8.32;7.60;;;20.40;99.90;;;;;;5025473;28;20097;-73
2021/06/20 02:17:26;;;;;;;8.65;7.75;;;20.40;99.90;;;;;;5014552;28;20074;-73
2021/06/20 02:19:53;;;;;;;6.95;6.38;;;20.40;99.90;;;;;;5022017;28;20490;-73
2021/06/20 02:22:20;;;;;;;7.57;6.88;;;20.40;99.90;;;;;;5008867;28;20127;-73
2021/06/20 02:24:45;;;;;;;7.32;6.63;;;20.40;99.90;;;;;;5011942;28;20564;-73
2021/06/20 02:27:13;;;;;;;7.07;6.45;;;20.30;99.90;;;;;;4992415;28;20085;-73
2021/06/20 02:29:40;;;;;;;7.20;6.60;;;20.20;99.90;;;;;;5007215;28;20209;-73
2021/06/20 02:32:06;;;;;;;7.55;6.35;;;20.20;99.90;;;;;;5012973;28;20078;-73
2021/06/20 02:34:32;;;;;;;7.82;6.47;;;20.20;99.90;;;;;;5013221;28;20104;-73
2021/06/20 02:36:57;;;;;;;7.30;6.63;;;20.40;99.90;;;;;;5029792;28;20082;-73
2021/06/20 02:39:23;;;;;;;6.93;6.25;;;20.30;99.90;;;;;;5020858;28;20092;-74
2021/06/20 02:41:50;;;;;;;7.82;7.15;;;20.30;99.90;;;;;;5014649;28;20465;-73
2021/06/20 02:44:17;;;;;;;7.20;6.60;;;20.10;99.90;;;;;;5011001;28;20078;-73
2021/06/20 02:46:43;;;;;;;6.63;6.03;;;20.00;99.90;;;;;;5016715;28;20078;-73
2021/06/20 02:49:09;;;;;;;7.82;6.55;;;20.00;99.90;;;;;;5010936;28;20097;-73
2021/06/20 02:51:35;;;;;;;7.68;6.97;;;20.00;99.90;;;;;;5011190;28;20079;-73
2021/06/20 02:54:00;;;;;;;7.78;7.18;;;20.00;99.90;;;;;;4993287;28;20153;-73
2021/06/20 02:56:26;;;;;;;10.18;6.97;;;20.00;99.90;;;;;;5018221;28;20094;-73
2021/06/20 02:58:52;;;;;;;7.95;6.32;;;19.90;99.90;;;;;;5050269;22;20113;-71
2021/06/20 03:01:17;;;;;;;7.47;6.22;;;19.80;99.90;;;;;;5036237;28;20078;-71
2021/06/20 03:03:44;;;;;;;9.07;7.18;;;19.90;99.90;;;;;;5031311;28;20081;-71
2021/06/20 03:06:10;;;;;;;8.05;7.05;;;19.90;99.90;;;;;;5029850;28;20070;-71
2021/06/20 03:08:36;;;;;;;8.10;6.70;;;19.80;99.90;;;;;;5031161;28;20166;-71
2021/06/20 03:11:01;;;;;;;8.02;7.22;;;19.90;99.90;;;;;;5030738;28;20506;-70
2021/06/20 03:13:28;;;;;;;8.85;7.30;;;19.90;99.90;;;;;;5031929;28;20538;-70
2021/06/20 03:15:53;;;;;;;7.15;6.47;;;19.90;99.90;;;;;;5032426;28;20062;-71
2021/06/20 03:18:19;;;;;;;8.15;7.35;;;19.80;99.90;;;;;;5035385;28;20437;-71
2021/06/20 03:20:44;;;;;;;8.05;7.25;;;19.90;99.90;;;;;;5013988;28;20172;-71
2021/06/20 03:23:11;;;;;;;8.95;7.70;;;20.00;99.90;;;;;;5031404;28;20069;-71
2021/06/20 03:25:40;;;;;;;7.70;7.10;;;19.80;99.90;;;;;;5030035;28;20084;-71
2021/06/20 03:28:07;;;;;;;8.43;7.63;;;19.50;99.90;;;;;;5038273;28;20728;-71
2021/06/20 03:30:34;;;;;;;7.25;6.30;;;19.60;99.90;;;;;;5024460;28;20185;-71
2021/06/20 03:33:00;;;;;;;11.40;7.05;;;19.70;99.90;;;;;;5013374;28;20200;-71
2021/06/20 03:35:26;;;;;;;9.77;7.13;;;19.70;99.90;;;;;;5031156;28;20077;-71
2021/06/20 03:37:52;;;;;;;7.30;6.63;;;19.80;99.90;;;;;;5029300;28;20109;-71
2021/06/20 03:40:18;;;;;;;8.43;7.32;;;19.80;99.90;;;;;;5028063;28;20460;-71
2021/06/20 03:42:44;;;;;;;8.68;7.93;;;19.80;99.90;;;;;;5029495;28;20074;-71
2021/06/20 03:45:10;;;;;;;7.75;7.00;;;19.80;99.90;;;;;;5028994;28;20073;-71
2021/06/20 03:47:37;;;;;;;9.55;7.90;;;19.80;99.90;;;;;;5033807;28;20089;-71
2021/06/20 03:50:07;;;;;;;8.60;7.72;;;19.90;99.90;;;;;;5029414;28;20097;-71
2021/06/20 03:52:33;;;;;;;9.25;6.88;;;19.90;99.90;;;;;;5011627;28;20080;-71
2021/06/20 03:54:59;;;;;;;8.18;7.40;;;19.90;99.90;;;;;;5028760;28;20074;-70
2021/06/20 03:57:25;;;;;;;10.18;7.35;;;19.80;99.90;;;;;;5011396;28;20713;-71
2021/06/20 03:59:51;;;;;;;7.68;6.93;;;19.80;99.90;;;;;;5030454;28;20086;-71
2021/06/20 04:02:17;;;;;;;9.48;7.47;;;19.80;99.90;;;;;;5029153;28;20077;-71
2021/06/20 04:04:43;;;;;;;9.07;7.28;;;19.80;99.90;;;;;;5028777;28;20080;-71
2021/06/20 04:07:11;;;;;;;8.90;7.45;;;20.00;99.90;;;;;;5027788;28;20078;-71
2021/06/20 04:09:41;;;;;;;8.10;7.13;;;19.90;99.90;;;;;;5028545;28;20108;-71
2021/06/20 04:12:10;;;;;;;14.20;7.60;;;19.70;99.90;;;;;;5028005;28;20078;-72
2021/06/20 04:14:37;;;;;;;7.90;7.13;;;19.60;99.90;;;;;;5028597;28;20078;-71
2021/06/20 04:17:02;;;;;;;8.88;7.22;;;19.60;99.90;;;;;;5028318;28;20120;-71
2021/06/20 04:19:29;;;;;;;10.52;6.95;;;19.70;99.90;;;;;;5014532;28;20485;-71
2021/06/20 04:21:54;;;;;;;10.63;6.95;;;19.70;99.90;;;;;;5024883;28;20110;-71
2021/06/20 04:24:20;;;;;;;9.13;7.25;;;19.80;99.90;;;;;;5029030;28;20120;-71
2021/06/20 04:26:46;;;;;;;8.98;8.00;;;19.90;99.90;;;;;;5010680;28;20077;-71
2021/06/20 04:29:11;;;;;;;12.30;7.00;;;19.90;99.90;;;;;;5028455;28;20098;-71
2021/06/20 04:31:37;;;;;;;9.30;7.43;;;20.10;99.90;;;;;;5028211;28;20070;-71
2021/06/20 04:34:03;;;;;;;11.50;6.95;;;20.20;99.90;;;;;;5030071;28;20143;-71
2021/06/20 04:36:29;;;;;;;10.25;7.25;;;20.40;99.90;;;;;;5026888;28;20488;-70
2021/06/20 04:38:55;;;;;;;11.27;7.35;;;20.50;99.90;;;;;;5037879;28;20097;-71
2021/06/20 04:41:22;;;;;;;10.90;7.95;;;20.50;99.90;;;;;;5043884;28;20132;-71
2021/06/20 04:46:29;;;;;;;10.55;7.30;;;20.80;99.90;;;;;;5029710;28;20092;-71
2021/06/20 04:48:57;;;;;;;9.70;6.95;;;20.80;99.90;;;;;;5026043;28;20189;-71
2021/06/20 04:51:23;;;;;;;8.70;6.70;;;20.80;99.90;;;;;;5032017;28;20077;-72
2021/06/20 04:53:49;;;;;;;10.43;7.22;;;20.90;99.90;;;;;;5029006;28;20128;-71
2021/06/20 04:56:15;;;;;;;10.43;6.88;;;20.90;99.90;;;;;;5008946;28;20526;-71
2021/06/20 04:58:42;;;;;;;10.32;7.10;;;20.90;99.90;;;;;;5027874;28;20133;-71
2021/06/20 05:01:07;;;;;;;10.10;7.88;;;20.90;99.90;;;;;;5024501;28;20078;-71
2021/06/20 05:03:33;;;;;;;13.52;7.00;;;21.00;99.90;;;;;;5027692;28;20078;-71
2021/06/20 05:05:58;;;;;;;13.70;7.32;;;21.00;99.90;;;;;;5026415;28;20070;-71
2021/06/20 05:08:24;;;;;;;9.93;7.82;;;21.10;99.90;;;;;;5010570;28;20207;-71
2021/06/20 05:10:53;;;;;;;9.90;7.18;;;21.20;99.90;;;;;;5010547;28;20066;-71
2021/06/20 05:13:20;;;;;;;7.95;7.13;;;21.20;99.90;;;;;;5028132;28;20081;-71
2021/06/20 05:15:46;;;;;;;10.20;7.88;;;21.20;99.90;;;;;;5012799;28;20437;-71
2021/06/20 05:18:11;;;;;;;11.32;7.82;;;21.30;99.90;;;;;;5028523;28;20201;-71
2021/06/20 05:20:38;;;;;;;13.40;8.02;;;21.40;99.90;;;;;;5028205;28;20468;-71
2021/06/20 05:23:04;;;;;;;9.60;7.97;;;21.60;99.90;;;;;;5028767;28;20101;-71
2021/06/20 05:25:30;;;;;;;8.93;7.65;;;21.70;99.90;;;;;;5011703;28;20102;-71
2021/06/20 05:27:55;;;;;;;17.27;9.10;;;21.80;99.90;;;;;;5033656;28;20089;-71
2021/06/20 05:30:21;;;;;;;9.40;8.15;;;22.00;99.90;;;;;;5030281;28;20555;-71
2021/06/20 05:32:49;;;;;;;10.80;7.88;;;22.20;99.90;;;;;;5029680;28;20081;-71
2021/06/20 05:35:15;;;;;;;9.25;8.05;;;22.40;99.90;;;;;;5037148;28;20066;-71
2021/06/20 05:37:41;;;;;;;12.32;7.22;;;22.60;99.90;;;;;;5024382;28;20429;-71
2021/06/20 05:40:07;;;;;;;11.93;8.50;;;22.80;99.90;;;;;;5015449;28;20092;-71
2021/06/20 05:42:33;;;;;;;10.45;7.53;;;23.00;99.90;;;;;;5026896;28;20066;-71
2021/06/20 05:44:58;;;;;;;13.45;8.18;;;23.10;99.90;;;;;;5027269;28;20161;-71
2021/06/20 05:47:24;;;;;;;12.25;8.07;;;23.10;99.90;;;;;;5028775;28;20101;-71
2021/06/20 05:49:50;;;;;;;12.30;8.40;;;23.20;99.90;;;;;;5048677;28;20158;-71
2021/06/20 05:52:17;;;;;;;9.82;7.38;;;23.30;99.90;;;;;;5048694;28;20070;-71
2021/06/20 05:54:49;;;;;;;12.40;7.25;;;23.50;99.90;;;;;;5030702;28;20092;-71
2021/06/20 05:57:15;;;;;;;14.30;6.93;;;23.50;99.90;;;;;;5018471;28;20482;-71
2021/06/20 05:59:41;;;;;;;9.50;8.15;;;23.50;99.90;;;;;;5041844;28;20112;-71
2021/06/20 06:02:07;;;;;;;8.98;7.63;;;23.70;99.90;;;;;;5013462;28;20113;-72
2021/06/20 06:04:33;;;;;;;12.02;7.75;;;23.50;99.90;;;;;;5031465;28;20105;-71
2021/06/20 06:06:58;;;;;;;9.73;7.55;;;23.50;99.90;;;;;;5029420;28;20079;-71
2021/06/20 06:09:24;;;;;;;11.65;7.90;;;23.40;99.90;;;;;;5033623;28;20093;-71
2021/06/20 06:11:50;;;;;;;9.20;8.10;;;23.40;99.90;;;;;;5036401;28;20116;-71
2021/06/20 06:14:16;;;;;;;9.98;8.50;;;23.30;99.90;;;;;;5039788;28;20123;-71
2021/06/20 06:16:42;;;;;;;9.30;8.35;;;23.30;99.90;;;;;;5031181;28;20082;-72
2021/06/20 06:19:09;;;;;;;9.73;7.90;;;23.30;99.90;;;;;;5025169;28;20102;-71
2021/06/20 06:21:35;;;;;;;10.45;7.68;;;23.30;99.90;;;;;;5029831;28;20169;-71
2021/06/20 06:24:01;;;;;;;8.55;7.75;;;23.40;99.90;;;;;;5032415;28;20544;-71
2021/06/20 06:26:27;;;;;;;9.55;8.45;;;23.40;99.90;;;;;;5030990;28;20077;-71
2021/06/20 06:28:52;;;;;;;13.95;8.82;;;23.30;99.90;;;;;;5033363;28;20105;-71
2021/06/20 06:31:18;;;;;;;9.02;8.13;;;23.30;99.90;;;;;;5024080;28;20078;-71
2021/06/20 06:33:43;;;;;;;14.18;9.77;;;23.30;99.90;;;;;;5034600;28;20556;-71
2021/06/20 06:36:09;;;;;;;10.25;9.13;;;23.40;99.90;;;;;;5029504;28;20276;-71
2021/06/20 06:38:34;;;;;;;9.57;8.55;;;23.30;99.90;;;;;;5032497;28;20138;-71
2021/06/20 06:41:00;;;;;;;11.32;8.75;;;23.30;99.90;;;;;;5028940;28;22029;-71
2021/06/20 06:43:26;;;;;;;11.75;8.80;;;23.30;99.90;;;;;;5013786;28;20456;-71
2021/06/20 06:45:51;;;;;;;10.10;9.02;;;23.30;99.90;;;;;;5030671;28;20098;-71
2021/06/20 06:48:17;;;;;;;10.70;9.60;;;23.30;99.90;;;;;;5039770;28;20096;-72
2021/06/20 06:50:44;;;;;;;11.00;9.23;;;23.30;99.90;;;;;;5013503;28;20105;-71
2021/06/20 06:53:10;;;;;;;11.13;9.45;;;23.40;99.90;;;;;;5030828;28;20070;-71
2021/06/20 06:55:36;;;;;;;16.00;9.82;;;23.30;99.90;;;;;;5030914;28;20120;-71
2021/06/20 06:58:02;;;;;;;15.25;8.65;;;23.40;99.90;;;;;;5012700;28;20187;-72
2021/06/20 07:00:28;;;;;;;11.57;10.10;;;23.30;99.90;;;;;;5019948;28;20085;-71
2021/06/20 07:02:54;;;;;;;11.40;9.27;;;23.40;99.90;;;;;;5037371;28;20077;-72
2021/06/20 07:05:20;;;;;;;10.32;9.27;;;23.40;99.90;;;;;;5044469;28;20161;-72
2021/06/20 07:07:46;;;;;;;11.82;9.88;;;23.40;99.90;;;;;;5041169;28;20599;-72
2021/06/20 07:10:12;;;;;;;13.07;10.43;;;23.30;99.90;;;;;;5020617;28;20596;-71
2021/06/20 07:12:37;;;;;;;10.45;9.35;;;23.40;99.90;;;;;;5045882;28;20081;-72
2021/06/20 07:15:05;;;;;;;10.77;9.63;;;23.40;99.90;;;;;;5043249;28;20084;-75
2021/06/20 07:17:35;;;;;;;10.40;9.40;;;23.40;99.90;;;;;;5024518;28;20159;-73
2021/06/20 07:20:06;;;;;;;12.52;9.07;;;23.50;99.90;;;;;;5038948;28;20074;-73
2021/06/20 07:22:31;;;;;;;10.43;9.27;;;23.50;99.90;;;;;;5017590;28;20070;-73
2021/06/20 07:24:57;;;;;;;14.82;8.82;;;23.50;99.90;;;;;;5040481;28;20093;-72
2021/06/20 07:27:23;;;;;;;12.82;8.73;;;23.50;99.90;;;;;;5030837;28;20430;-72
2021/06/20 07:29:49;;;;;;;9.30;8.45;;;23.60;99.90;;;;;;5049006;28;20088;-72
2021/06/20 07:32:14;;;;;;;12.35;7.90;;;23.70;99.90;;;;;;5040613;28;20080;-72
2021/06/20 07:34:40;;;;;;;12.60;9.60;;;23.70;99.90;;;;;;5037578;28;20088;-72
2021/06/20 07:37:06;;;;;;;9.65;8.20;;;23.70;99.90;;;;;;5040452;28;20077;-72
2021/06/20 07:39:32;;;;;;;10.73;8.05;;;23.80;99.90;;;;;;5042949;28;20562;-72
2021/06/20 07:41:59;;;;;;;9.25;7.85;;;23.70;99.90;;;;;;5049573;28;20115;-72
2021/06/20 07:44:25;;;;;;;14.02;8.40;;;23.70;99.90;;;;;;5018005;28;20085;-72
2021/06/20 07:46:50;;;;;;;11.23;8.52;;;23.70;99.90;;;;;;5029518;28;20082;-72
2021/06/20 07:49:16;;;;;;;14.07;8.35;;;23.70;99.90;;;;;;5029943;28;20167;-73
2021/06/20 07:51:43;;;;;;;15.35;7.75;;;23.70;99.90;;;;;;5043200;28;20066;-72
2021/06/20 07:54:08;;;;;;;13.32;7.93;;;23.70;99.90;;;;;;5035174;28;20159;-71
2021/06/20 07:56:34;;;;;;;15.20;8.25;;;23.80;99.90;;;;;;5010459;28;20101;-71
2021/06/20 07:58:59;;;;;;;17.20;7.25;;;23.90;99.90;;;;;;5014024;28;20589;-71
2021/06/20 08:01:26;;;;;;;14.40;6.85;;;23.80;99.90;;;;;;5041537;28;20077;-72
2021/06/20 08:03:52;;;;;;;14.85;7.60;;;23.90;99.90;;;;;;5042108;28;20073;-72
2021/06/20 08:06:17;;;;;;;17.63;7.32;;;23.90;99.90;;;;;;5043334;28;20089;-72
2021/06/20 08:08:43;;;;;;;15.88;7.47;;;23.80;99.90;;;;;;5039587;28;20464;-72
2021/06/20 08:11:09;;;;;;;14.50;7.35;;;23.90;99.90;;;;;;5021897;28;20292;-72
2021/06/20 08:13:34;;;;;;;15.85;7.88;;;23.80;99.90;;;;;;5043496;28;20077;-72
2021/06/20 08:16:00;;;;;;;20.67;7.68;;;23.90;99.90;;;;;;5034597;28;20080;-72
2021/06/20 08:18:25;;;;;;;17.50;7.60;;;23.80;99.90;;;;;;5043092;28;20105;-72
2021/06/20 08:20:51;;;;;;;18.40;8.50;;;23.80;99.90;;;;;;5020926;28;20073;-72
2021/06/20 08:23:17;;;;;;;21.42;8.60;;;23.80;99.90;;;;;;5038474;28;20797;-73
2021/06/20 08:25:42;;;;;;;12.02;7.55;;;23.80;99.90;;;;;;5041020;28;20207;-73
2021/06/20 08:28:08;;;;;;;18.70;7.72;;;23.80;99.90;;;;;;5044271;28;20116;-73
2021/06/20 08:30:33;;;;;;;15.45;7.75;;;23.90;99.90;;;;;;5042397;28;20565;-72
2021/06/20 08:33:00;;;;;;;15.13;8.00;;;24.00;99.90;;;;;;5017018;28;20073;-72
2021/06/20 08:35:26;;;;;;;14.25;7.72;;;23.90;99.90;;;;;;5019796;28;20080;-72
2021/06/20 08:37:52;;;;;;;15.80;8.23;;;23.90;99.90;;;;;;5043096;28;20097;-72
2021/06/20 08:40:18;;;;;;;17.88;8.50;;;23.90;99.90;;;;;;5045694;28;20074;-72
2021/06/20 08:42:44;;;;;;;16.80;7.25;;;23.90;99.90;;;;;;5036312;28;20433;-72
2021/06/20 08:45:12;;;;;;;15.27;8.07;;;24.00;99.90;;;;;;5010595;28;20085;-71
2021/06/20 08:47:40;;;;;;;16.52;7.13;;;24.00;99.90;;;;;;5033356;28;20093;-72
2021/06/20 08:50:06;;;;;;;20.13;8.23;;;24.20;99.90;;;;;;5023447;28;20923;-71
2021/06/20 08:52:32;;;;;;;15.00;7.75;;;24.30;99.90;;;;;;5041790;28;20085;-72
2021/06/20 08:55:01;;;;;;;15.68;7.68;;;24.40;99.90;;;;;;5040486;28;20062;-71
2021/06/20 08:57:36;;;;;;;23.27;7.50;;;24.40;99.90;;;;;;5033944;28;20147;-71
2021/06/20 09:00:06;;;;;;;20.02;7.43;;;24.40;99.90;;;;;;5046009;28;20076;-74
2021/06/20 09:02:31;;;;;;;20.00;8.48;;;24.50;99.90;;;;;;5019899;28;20077;-74
2021/06/20 09:04:59;;;;;;;17.38;8.63;;;24.50;99.90;;;;;;5046904;28;20078;-73
2021/06/20 09:07:36;;;;;;;16.95;7.32;;;24.60;99.90;;;;;;5039348;28;20563;-72
2021/06/20 09:10:17;;;;;;;18.88;6.20;;;24.70;99.90;;;;;;5026845;28;20104;-72
2021/06/20 09:13:03;;;;;;;13.73;6.60;;;24.70;99.90;;;;;;5015626;28;20166;-72
2021/06/20 09:15:31;;;;;;;15.32;6.78;;;24.80;99.90;;;;;;5039598;28;20280;-71
2021/06/20 09:17:59;;;;;;;18.83;7.05;;;24.90;99.90;;;;;;5011291;28;20094;-71
2021/06/20 09:20:38;;;;;;;18.88;7.05;;;25.00;99.90;;;;;;5027736;28;20169;-71
2021/06/20 09:23:08;;;;;;;15.00;6.13;;;25.10;99.90;;;;;;5028401;28;20081;-71
2021/06/20 09:25:35;;;;;;;14.75;5.88;;;25.10;99.90;;;;;;5026953;28;20078;-71
2021/06/20 09:28:02;;;;;;;22.55;7.45;;;25.20;99.90;;;;;;5040543;28;20089;-71
2021/06/20 09:30:30;;;;;;;26.63;6.78;;;25.30;99.90;;;;;;5036441;28;20086;-71
2021/06/20 09:33:00;;;;;;;16.52;5.88;;;25.30;99.90;;;;;;5039509;28;20529;-72
2021/06/20 09:35:31;;;;;;;15.20;5.82;;;25.30;99.90;;;;;;5040988;28;20085;-71
2021/06/20 09:37:58;;;;;;;23.52;7.07;;;25.30;99.90;;;;;;5039097;28;20093;-71
2021/06/20 09:40:30;;;;;;;16.73;5.75;;;25.40;99.90;;;;;;5031096;28;20082;-71
2021/06/20 09:42:56;;;;;;;15.63;5.43;;;25.30;99.90;;;;;;5032535;28;20093;-72
2021/06/20 09:45:31;;;;;;;15.70;6.10;;;25.50;99.90;;;;;;5044674;28;21155;-72
2021/06/20 09:47:57;;;;;;;17.95;6.05;;;25.60;99.90;;;;;;5051662;28;20092;-71
2021/06/20 09:50:37;;;;;;;15.60;5.57;;;25.60;99.90;;;;;;5043727;28;20085;-71
2021/06/20 09:53:03;;;;;;;16.85;5.38;;;25.60;99.90;;;;;;5040410;28;20549;-71
2021/06/20 09:55:29;;;;;;;13.55;5.70;;;25.60;99.90;;;;;;5028113;28;20074;-71
2021/06/20 09:58:01;;;;;;;20.40;5.25;;;25.70;99.90;;;;;;5017081;28;20112;-71
2021/06/20 10:00:39;;;;;;;16.50;5.95;;;25.70;99.90;;;;;;5039910;28;20463;-71
2021/06/20 10:03:05;;;;;;;23.92;5.75;;;25.50;99.90;;;;;;5041569;28;20215;-70
2021/06/20 10:05:30;;;;;;;15.50;5.43;;;25.70;99.90;;;;;;5027409;28;20070;-72
2021/06/20 10:07:57;;;;;;;21.10;6.93;;;25.90;99.90;;;;;;5022191;28;20108;-71
2021/06/20 10:10:22;;;;;;;17.17;5.07;;;25.80;99.90;;;;;;5030698;28;20105;-71
2021/06/20 10:12:48;;;;;;;17.80;5.75;;;25.70;99.90;;;;;;5040813;28;20453;-71
2021/06/20 10:15:14;;;;;;;15.13;5.25;;;25.70;99.90;;;;;;5039156;28;20078;-71
2021/06/20 10:17:43;;;;;;;21.60;6.03;;;25.90;99.90;;;;;;5030951;28;20090;-71
2021/06/20 10:20:14;;;;;;;19.52;5.35;;;26.00;99.90;;;;;;5016182;28;20097;-71
2021/06/20 10:22:43;;;;;;;20.58;6.32;;;26.20;99.90;;;;;;5023264;28;20077;-70
2021/06/20 10:25:42;;;;;;;19.73;5.35;;;26.20;99.90;;;;;;5031530;28;20081;-73
2021/06/20 10:28:12;;;;;;;16.85;5.70;;;26.30;99.90;;;;;;5037831;28;20575;-71
2021/06/20 10:30:39;;;;;;;19.23;5.18;;;26.40;99.90;;;;;;5032482;28;20094;-71
2021/06/20 10:33:06;;;;;;;19.48;5.68;;;26.20;99.90;;;;;;5037754;28;20120;-71
2021/06/20 10:35:32;;;;;;;20.35;5.47;;;26.20;99.90;;;;;;5030749;28;20437;-71
2021/06/20 10:37:57;;;;;;;16.08;5.63;;;26.10;99.90;;;;;;5030956;28;20155;-71
2021/06/20 10:40:32;;;;;;;14.80;4.68;;;26.00;99.90;;;;;;5035333;28;20593;-70
2021/06/20 10:43:00;;;;;;;17.02;5.22;;;26.00;99.90;;;;;;5033520;28;20426;-71
2021/06/20 10:45:45;;;;;;;17.63;5.13;;;26.10;99.90;;;;;;5029848;28;20422;-71
2021/06/20 10:48:18;;;;;;;19.92;5.88;;;26.30;99.90;;;;;;5030180;28;20155;-71
2021/06/20 10:50:54;;;;;;;19.33;5.35;;;26.30;99.90;;;;;;5020209;28;20180;-71
2021/06/20 10:53:21;;;;;;;17.08;5.82;;;26.40;99.90;;;;;;5050719;28;20071;-71
2021/06/20 10:55:54;;;;;;;16.00;5.13;;;26.30;99.90;;;;;;5048018;28;20084;-71
2021/06/20 10:58:28;;;;;;;21.02;5.25;;;26.30;99.90;;;;;;5031261;28;20196;-71
2021/06/20 11:01:08;;;;;;;22.73;6.18;;;26.50;99.90;;;;;;5032611;28;20082;-71
2021/06/20 11:03:34;;;;;;;21.73;5.35;;;26.40;99.90;;;;;;5030988;28;20078;-70
2021/06/20 11:06:09;;;;;;;18.05;4.97;;;26.50;99.90;;;;;;5032685;28;20074;-71
2021/06/20 11:08:41;;;;;;;13.48;5.47;;;26.50;99.90;;;;;;5034074;28;20082;-71
2021/06/20 11:11:17;;;;;;;27.13;5.95;;;26.70;99.90;;;;;;5029936;28;20165;-71
2021/06/20 11:14:04;;;;;;;21.77;5.80;;;26.80;99.90;;;;;;5029855;28;20078;-71
2021/06/20 11:16:32;;;;;;;21.55;5.10;;;26.80;99.90;;;;;;5029775;28;20065;-71
2021/06/20 11:19:10;;;;;;;18.42;5.18;;;26.90;99.90;;;;;;5029097;28;20090;-71
2021/06/20 11:21:45;;;;;;;18.20;4.68;;;26.80;99.90;;;;;;5024151;28;20073;-71
2021/06/20 11:24:14;;;;;;;16.33;4.68;;;27.00;99.90;;;;;;5048557;28;20069;-73
2021/06/20 11:27:02;;;;;;;18.70;5.28;;;26.90;99.90;;;;;;5030772;28;20077;-70
2021/06/20 11:29:48;;;;;;;14.48;4.90;;;27.10;99.90;;;;;;5043744;28;20093;-71
2021/06/20 11:32:19;;;;;;;15.07;5.78;;;27.20;99.90;;;;;;5023287;28;20152;-71
2021/06/20 11:34:53;;;;;;;21.05;5.47;;;27.10;99.90;;;;;;5045951;28;20070;-71
2021/06/20 11:37:27;;;;;;;18.02;5.15;;;27.10;99.90;;;;;;5038976;28;20065;-72
2021/06/20 11:39:59;;;;;;;16.80;5.78;;;27.10;99.90;;;;;;5019029;28;20085;-74
2021/06/20 11:42:33;;;;;;;21.05;5.40;;;27.20;99.90;;;;;;5026747;28;20108;-74
2021/06/20 11:45:03;;;;;;;23.35;5.38;;;27.00;99.80;;;;;;5042265;28;20069;-73
2021/06/20 11:47:50;;;;;;;18.33;5.25;;;27.00;99.80;;;;;;5037078;28;20108;-74
2021/06/20 11:50:31;;;;;;;15.57;4.22;;;26.90;99.90;;;;;;5046728;28;20077;-74
2021/06/20 11:53:03;;;;;;;16.10;4.32;;;26.70;99.90;;;;;;5047208;28;20282;-73
2021/06/20 11:55:31;;;;;;;18.48;4.50;;;26.90;99.80;;;;;;5038755;28;20070;-73
2021/06/20 11:58:03;;;;;;;17.80;4.63;;;26.90;99.90;;;;;;5040987;28;20097;-73
2021/06/20 12:00:28;;;;;;;17.95;4.60;;;27.00;99.90;;;;;;5039021;28;20460;-73
2021/06/20 12:03:21;;;;;;;18.25;5.00;;;27.00;99.90;;;;;;5027208;28;20603;-72
2021/06/20 12:05:55;;;;;;;13.98;4.65;;;27.10;99.90;;;;;;5035323;28;20180;-72
2021/06/20 12:08:22;;;;;;;19.05;5.20;;;27.00;99.90;;;;;;5015837;28;20121;-74
2021/06/20 12:10:48;;;;;;;20.65;5.00;;;27.00;99.90;;;;;;5037042;28;20102;-72
2021/06/20 12:13:15;;;;;;;17.88;5.15;;;27.00;99.90;;;;;;5046875;28;20066;-73
2021/06/20 12:15:42;;;;;;;24.90;4.65;;;27.10;99.90;;;;;;5042560;28;20065;-73
2021/06/20 12:18:10;;;;;;;15.75;4.38;;;27.30;99.90;;;;;;5045902;28;20090;-72
2021/06/20 12:20:40;;;;;;;16.08;5.05;;;27.20;99.90;;;;;;5043555;28;20073;-73
2021/06/20 12:23:08;;;;;;;19.20;5.47;;;27.10;99.90;;;;;;5042453;28;20069;-71
2021/06/20 12:25:45;;;;;;;16.42;5.07;;;27.00;99.90;;;;;;5043941;28;20097;-72
2021/06/20 12:28:12;;;;;;;18.58;5.13;;;26.90;99.90;;;;;;5035313;28;20223;-71
2021/06/20 12:30:43;;;;;;;25.75;6.05;;;27.00;99.90;;;;;;5019537;28;20105;-72
2021/06/20 12:33:10;;;;;;;18.05;4.57;;;27.10;99.90;;;;;;5025912;28;20070;-72
2021/06/20 12:35:37;;;;;;;19.95;4.93;;;27.10;99.90;;;;;;5039438;28;20560;-73
2021/06/20 12:38:14;;;;;;;19.48;5.65;;;27.20;99.90;;;;;;5041542;28;20096;-72
2021/06/20 12:40:39;;;;;;;17.75;4.88;;;27.20;99.90;;;;;;5044965;28;20124;-75
2021/06/20 12:43:05;;;;;;;16.30;5.10;;;27.30;99.90;;;;;;5025446;28;20545;-70
2021/06/20 12:45:35;;;;;;;23.25;5.65;;;27.20;99.90;;;;;;5022796;28;20120;-70